Aérodrome :
LOGIN :

S'inscrire | Disclaimer

   EN    FR    IT 

 










Légende :    VFR   VFR Marginal   IFR   IFR Intensif   IFR Très Intensif
Visi : 
Plafond : 
>= 8 km
>= 3000ft
5 à 8 km
1000 à 3000 ft
1500m à 5 km
500 à 1000 ft
800 à 1500m
200 à 500 ft
< 800m
< 200 ft
Symboles :   Orages  Brouillard  Fortes neiges  Fortes précipitations  Vent > 20 kt
SIGMETs :   Divers  Orages  Givrage  Turbulence  Onde Orograph.  Cendres Volcan.







- Altitude de l'aérodrome : 1017 ft
- Voir les cartes d'approche


LFSL - Brive Souillac

DERNIER METAR :
  • 280300Z AUTO 20007KT 160V230 9999 SCT012/// BKN019/// OVC025/// ///TCU 07/06 Q1004 TEMPO RA BKN012 BKN030 BECMG 26016G28KT

METARs EXPIRÉS :
  • 280230Z AUTO 21006KT 170V250 9999 SCT021 BKN037 BKN052 07/05 Q1005
  • 280200Z AUTO 21007KT 170V250 9999 BKN019/// BKN056/// BKN096/// ///TCU 07/05 Q1005
  • 280130Z AUTO 21006KT 170V250 9999 FEW030/// SCT049/// OVC062/// ///TCU 07/05 Q1005
  • 280100Z AUTO 22006KT 170V260 9999 -RA FEW036/// BKN047/// OVC056/// ///TCU 07/06 Q1006
  • 280030Z AUTO 24007KT 190V280 9999 -RA SCT009/// BKN031/// BKN039/// ///TCU 08/06 Q1006

TAF TAF LFSL
Valide du 28 à 03h jusqu'au 28 à 12h UTC


280200Z 2803/2812 23010KT 9999 BKN020 BKN050
TEMPO 2803/2811 8000 RA BKN012 BKN030
BECMG 2804/2806 26016G28KT
Pas de NOTAMs connus pour ce terrain.
1 SIGMET publié pour la FIR Bordeaux (LFBB) :
 
Turbulence forte
LFBB SIGMET 6 VALID 280000/280400 LFPW
LFBB BORDEAUX FIR/UIR SEV TURB FCST W OF LINE N4300 W00100 - N4630 W00100 SFC/FL060 STNR NC=



MET'MAP, la Météo Aéronautique d'un coup d'oeil ! - Copyright ORBIFLY Décembre 2007 - Disclaimer

ORBIFLY MET'MAP TEAM :

Programmation & Développement : Alexandra Zaïnal
Conception & Développement : Baudouin d'Aumeries
Co-Programmation & Développement : Marc-Olivier Méhu
Soutien technique & logistique : Manuel Goepfert

Contact : metmap@orbifly.com




SOURCES & CREDITS :

   NOAA